sensor_id;sensor_type;location;lat;lon;timestamp;pressure;altitude;pressure_sealevel;temperature;humidity
38852;BME280;24605;50.092;9.182;2023-02-21T00:01:04;98355.91;;;6.51;100.00
38852;BME280;24605;50.092;9.182;2023-02-21T00:03:48;98355.59;;;6.54;100.00
38852;BME280;24605;50.092;9.182;2023-02-21T00:06:33;98360.16;;;6.52;100.00
38852;BME280;24605;50.092;9.182;2023-02-21T00:09:17;98342.25;;;6.37;100.00
38852;BME280;24605;50.092;9.182;2023-02-21T00:12:03;98369.59;;;6.53;100.00
38852;BME280;24605;50.092;9.182;2023-02-21T00:14:47;98363.72;;;6.70;100.00
38852;BME280;24605;50.092;9.182;2023-02-21T00:17:31;98353.06;;;6.73;100.00
38852;BME280;24605;50.092;9.182;2023-02-21T00:20:15;98352.66;;;6.88;100.00
38852;BME280;24605;50.092;9.182;2023-02-21T00:22:58;98329.06;;;6.80;100.00
38852;BME280;24605;50.092;9.182;2023-02-21T00:25:42;98348.84;;;6.92;100.00
38852;BME280;24605;50.092;9.182;2023-02-21T00:28:28;98346.09;;;6.94;100.00
38852;BME280;24605;50.092;9.182;2023-02-21T00:31:17;98342.81;;;7.01;100.00
38852;BME280;24605;50.092;9.182;2023-02-21T00:34:01;98342.66;;;6.93;100.00
38852;BME280;24605;50.092;9.182;2023-02-21T00:36:45;98338.16;;;6.95;100.00
38852;BME280;24605;50.092;9.182;2023-02-21T00:39:29;98337.19;;;6.96;100.00
38852;BME280;24605;50.092;9.182;2023-02-21T00:42:13;98330.03;;;6.98;100.00
38852;BME280;24605;50.092;9.182;2023-02-21T00:44:58;98314.56;;;6.87;100.00
38852;BME280;24605;50.092;9.182;2023-02-21T00:47:42;98328.94;;;7.01;100.00
38852;BME280;24605;50.092;9.182;2023-02-21T00:50:26;98324.28;;;7.04;100.00
38852;BME280;24605;50.092;9.182;2023-02-21T00:53:10;98322.63;;;7.23;100.00
38852;BME280;24605;50.092;9.182;2023-02-21T00:55:54;98324.28;;;7.24;100.00
38852;BME280;24605;50.092;9.182;2023-02-21T00:58:38;98319.63;;;7.18;100.00
38852;BME280;24605;50.092;9.182;2023-02-21T01:01:24;98324.03;;;7.17;100.00
38852;BME280;24605;50.092;9.182;2023-02-21T01:04:08;98323.63;;;7.22;100.00
38852;BME280;24605;50.092;9.182;2023-02-21T01:06:52;98322.34;;;7.26;100.00
38852;BME280;24605;50.092;9.182;2023-02-21T01:09:36;98321.13;;;7.20;100.00
38852;BME280;24605;50.092;9.182;2023-02-21T01:12:19;98324.16;;;7.26;100.00
38852;BME280;24605;50.092;9.182;2023-02-21T01:15:04;98322.34;;;7.26;100.00
38852;BME280;24605;50.092;9.182;2023-02-21T01:17:50;98320.31;;;7.20;100.00
38852;BME280;24605;50.092;9.182;2023-02-21T01:20:33;98323.88;;;7.19;100.00
38852;BME280;24605;50.092;9.182;2023-02-21T01:23:17;98328.81;;;7.22;100.00
38852;BME280;24605;50.092;9.182;2023-02-21T01:26:01;98328.13;;;7.20;100.00
38852;BME280;24605;50.092;9.182;2023-02-21T01:28:46;98316.19;;;7.17;100.00
38852;BME280;24605;50.092;9.182;2023-02-21T01:31:30;98324.81;;;7.28;100.00
38852;BME280;24605;50.092;9.182;2023-02-21T01:34:15;98327.44;;;7.37;100.00
38852;BME280;24605;50.092;9.182;2023-02-21T01:37:00;98326.72;;;7.45;100.00
38852;BME280;24605;50.092;9.182;2023-02-21T01:39:44;98332.34;;;7.41;100.00
38852;BME280;24605;50.092;9.182;2023-02-21T01:42:28;98325.09;;;7.44;100.00
38852;BME280;24605;50.092;9.182;2023-02-21T01:45:39;98316.00;;;7.48;100.00
38852;BME280;24605;50.092;9.182;2023-02-21T01:48:25;98305.06;;;7.35;100.00
38852;BME280;24605;50.092;9.182;2023-02-21T01:51:13;98313.69;;;7.45;100.00
38852;BME280;24605;50.092;9.182;2023-02-21T01:53:59;98318.78;;;7.37;100.00
38852;BME280;24605;50.092;9.182;2023-02-21T01:56:43;98313.97;;;7.32;100.00
38852;BME280;24605;50.092;9.182;2023-02-21T01:59:28;98308.47;;;7.35;100.00
38852;BME280;24605;50.092;9.182;2023-02-21T02:02:15;98293.53;;;7.28;100.00
38852;BME280;24605;50.092;9.182;2023-02-21T02:05:00;98306.97;;;7.43;100.00
38852;BME280;24605;50.092;9.182;2023-02-21T02:07:47;98305.84;;;7.45;100.00
38852;BME280;24605;50.092;9.182;2023-02-21T02:10:32;98282.38;;;7.45;100.00
38852;BME280;24605;50.092;9.182;2023-02-21T02:13:28;98307.81;;;7.43;100.00
38852;BME280;24605;50.092;9.182;2023-02-21T02:16:02;98311.06;;;7.55;100.00
38852;BME280;24605;50.092;9.182;2023-02-21T02:18:52;98304.34;;;7.43;100.00
38852;BME280;24605;50.092;9.182;2023-02-21T02:21:48;98302.28;;;7.46;100.00
38852;BME280;24605;50.092;9.182;2023-02-21T02:27:52;98299.84;;;7.25;100.00
38852;BME280;24605;50.092;9.182;2023-02-21T02:30:44;98293.28;;;7.21;100.00
38852;BME280;24605;50.092;9.182;2023-02-21T02:36:23;98295.34;;;7.08;100.00
38852;BME280;24605;50.092;9.182;2023-02-21T02:38:58;98259.94;;;6.85;100.00
38852;BME280;24605;50.092;9.182;2023-02-21T02:41:35;98270.66;;;6.92;100.00
38852;BME280;24605;50.092;9.182;2023-02-21T02:44:14;98300.13;;;7.12;100.00
38852;BME280;24605;50.092;9.182;2023-02-21T02:46:44;98279.41;;;7.20;100.00
38852;BME280;24605;50.092;9.182;2023-02-21T02:49:17;98296.97;;;7.28;100.00
38852;BME280;24605;50.092;9.182;2023-02-21T02:51:46;98294.94;;;7.22;100.00
38852;BME280;24605;50.092;9.182;2023-02-21T02:54:13;98297.53;;;7.22;100.00
38852;BME280;24605;50.092;9.182;2023-02-21T02:56:40;98280.66;;;7.16;100.00
38852;BME280;24605;50.092;9.182;2023-02-21T02:59:08;98287.22;;;7.20;100.00
38852;BME280;24605;50.092;9.182;2023-02-21T03:04:35;98292.88;;;7.06;100.00
38852;BME280;24605;50.092;9.182;2023-02-21T03:07:16;98285.06;;;6.96;100.00
38852;BME280;24605;50.092;9.182;2023-02-21T03:09:51;98286.81;;;7.05;100.00
38852;BME280;24605;50.092;9.182;2023-02-21T03:12:28;98300.56;;;7.17;100.00
38852;BME280;24605;50.092;9.182;2023-02-21T03:15:00;98263.22;;;6.97;100.00
38852;BME280;24605;50.092;9.182;2023-02-21T03:17:30;98298.63;;;7.19;100.00
38852;BME280;24605;50.092;9.182;2023-02-21T03:20:01;98306.44;;;7.19;100.00
38852;BME280;24605;50.092;9.182;2023-02-21T03:22:30;98304.38;;;7.33;100.00
38852;BME280;24605;50.092;9.182;2023-02-21T03:24:59;98275.16;;;7.19;100.00
38852;BME280;24605;50.092;9.182;2023-02-21T03:27:29;98295.72;;;7.42;100.00
38852;BME280;24605;50.092;9.182;2023-02-21T03:30:00;98299.69;;;7.36;100.00
38852;BME280;24605;50.092;9.182;2023-02-21T03:32:30;98295.72;;;7.42;100.00
38852;BME280;24605;50.092;9.182;2023-02-21T03:34:57;98277.22;;;7.26;100.00
38852;BME280;24605;50.092;9.182;2023-02-21T03:37:31;98299.97;;;7.43;100.00
38852;BME280;24605;50.092;9.182;2023-02-21T03:39:58;98299.69;;;7.36;100.00
38852;BME280;24605;50.092;9.182;2023-02-21T03:42:25;98271.03;;;7.17;100.00
38852;BME280;24605;50.092;9.182;2023-02-21T03:44:51;98296.31;;;7.16;100.00
38852;BME280;24605;50.092;9.182;2023-02-21T03:47:18;98280.38;;;7.29;100.00
38852;BME280;24605;50.092;9.182;2023-02-21T03:49:45;98285.84;;;7.26;100.00
38852;BME280;24605;50.092;9.182;2023-02-21T03:52:11;98285.97;;;7.34;100.00
38852;BME280;24605;50.092;9.182;2023-02-21T03:54:40;98266.59;;;7.37;100.00
38852;BME280;24605;50.092;9.182;2023-02-21T03:57:06;98223.72;;;7.02;100.00
38852;BME280;24605;50.092;9.182;2023-02-21T03:59:33;98287.06;;;7.42;100.00
38852;BME280;24605;50.092;9.182;2023-02-21T04:01:59;98253.31;;;7.30;100.00
38852;BME280;24605;50.092;9.182;2023-02-21T04:04:27;98272.25;;;7.32;100.00
38852;BME280;24605;50.092;9.182;2023-02-21T04:06:54;98290.34;;;7.53;100.00
38852;BME280;24605;50.092;9.182;2023-02-21T04:09:21;98228.91;;;7.21;100.00
38852;BME280;24605;50.092;9.182;2023-02-21T04:11:48;98286.91;;;7.53;100.00
38852;BME280;24605;50.092;9.182;2023-02-21T04:14:15;98291.19;;;7.44;100.00
38852;BME280;24605;50.092;9.182;2023-02-21T04:16:42;98295.72;;;7.32;100.00
38852;BME280;24605;50.092;9.182;2023-02-21T04:19:08;98273.47;;;7.48;100.00
38852;BME280;24605;50.092;9.182;2023-02-21T04:21:35;98282.69;;;7.42;100.00
38852;BME280;24605;50.092;9.182;2023-02-21T04:24:02;98288.13;;;7.59;100.00
38852;BME280;24605;50.092;9.182;2023-02-21T04:26:29;98276.03;;;7.58;100.00
38852;BME280;24605;50.092;9.182;2023-02-21T04:28:56;98268.13;;;7.40;100.00
38852;BME280;24605;50.092;9.182;2023-02-21T04:31:23;98287.97;;;7.60;100.00
38852;BME280;24605;50.092;9.182;2023-02-21T04:33:50;98250.69;;;7.40;100.00
38852;BME280;24605;50.092;9.182;2023-02-21T04:36:16;98290.44;;;7.72;100.00
38852;BME280;24605;50.092;9.182;2023-02-21T04:38:43;98293.31;;;7.68;100.00
38852;BME280;24605;50.092;9.182;2023-02-21T04:41:12;98289.91;;;7.58;100.00
38852;BME280;24605;50.092;9.182;2023-02-21T04:43:41;98285.78;;;7.56;100.00
38852;BME280;24605;50.092;9.182;2023-02-21T04:46:09;98258.78;;;7.37;100.00
38852;BME280;24605;50.092;9.182;2023-02-21T04:48:40;98273.63;;;7.36;100.00
38852;BME280;24605;50.092;9.182;2023-02-21T04:51:06;98283.69;;;7.12;100.00
38852;BME280;24605;50.092;9.182;2023-02-21T04:53:33;98282.56;;;6.95;100.00
38852;BME280;24605;50.092;9.182;2023-02-21T04:55:59;98284.63;;;7.01;100.00
38852;BME280;24605;50.092;9.182;2023-02-21T04:58:26;98272.16;;;6.85;100.00
38852;BME280;24605;50.092;9.182;2023-02-21T05:00:52;98271.06;;;6.78;100.00
38852;BME280;24605;50.092;9.182;2023-02-21T05:03:20;98271.72;;;6.70;100.00
38852;BME280;24605;50.092;9.182;2023-02-21T05:05:48;98256.91;;;6.61;100.00
38852;BME280;24605;50.092;9.182;2023-02-21T05:08:16;98261.19;;;6.52;100.00
38852;BME280;24605;50.092;9.182;2023-02-21T05:10:43;98257.03;;;6.39;100.00
38852;BME280;24605;50.092;9.182;2023-02-21T05:13:10;98265.94;;;6.37;100.00
38852;BME280;24605;50.092;9.182;2023-02-21T05:15:37;98250.66;;;6.03;100.00
38852;BME280;24605;50.092;9.182;2023-02-21T05:18:04;98267.38;;;6.10;100.00
38852;BME280;24605;50.092;9.182;2023-02-21T05:20:31;98247.97;;;6.34;100.00
38852;BME280;24605;50.092;9.182;2023-02-21T05:22:58;98263.75;;;6.42;100.00
38852;BME280;24605;50.092;9.182;2023-02-21T05:25:25;98259.09;;;6.36;100.00
38852;BME280;24605;50.092;9.182;2023-02-21T05:27:51;98236.44;;;6.26;100.00
38852;BME280;24605;50.092;9.182;2023-02-21T05:30:20;98250.47;;;6.55;100.00
38852;BME280;24605;50.092;9.182;2023-02-21T05:32:48;98223.84;;;6.22;100.00
38852;BME280;24605;50.092;9.182;2023-02-21T05:35:15;98255.41;;;6.58;100.00
38852;BME280;24605;50.092;9.182;2023-02-21T05:37:44;98256.22;;;6.49;100.00
38852;BME280;24605;50.092;9.182;2023-02-21T05:40:11;98251.81;;;6.39;100.00
38852;BME280;24605;50.092;9.182;2023-02-21T05:42:39;98253.38;;;6.52;100.00
38852;BME280;24605;50.092;9.182;2023-02-21T05:45:06;98252.38;;;6.53;100.00
38852;BME280;24605;50.092;9.182;2023-02-21T05:47:33;98257.59;;;6.53;100.00
38852;BME280;24605;50.092;9.182;2023-02-21T05:50:00;98248.56;;;6.47;100.00
38852;BME280;24605;50.092;9.182;2023-02-21T05:52:27;98243.47;;;6.46;100.00
38852;BME280;24605;50.092;9.182;2023-02-21T05:54:55;98233.44;;;6.31;100.00
38852;BME280;24605;50.092;9.182;2023-02-21T05:57:21;98226.28;;;6.14;100.00
38852;BME280;24605;50.092;9.182;2023-02-21T05:59:48;98231.09;;;6.28;100.00
38852;BME280;24605;50.092;9.182;2023-02-21T06:02:15;98243.41;;;6.26;100.00
38852;BME280;24605;50.092;9.182;2023-02-21T06:04:41;98241.66;;;6.26;100.00
38852;BME280;24605;50.092;9.182;2023-02-21T06:07:08;98240.91;;;6.05;100.00
38852;BME280;24605;50.092;9.182;2023-02-21T06:09:34;98233.97;;;5.84;100.00
38852;BME280;24605;50.092;9.182;2023-02-21T06:12:03;98234.69;;;5.96;100.00
38852;BME280;24605;50.092;9.182;2023-02-21T06:14:31;98231.66;;;5.91;100.00
38852;BME280;24605;50.092;9.182;2023-02-21T06:16:59;98240.25;;;6.13;100.00
38852;BME280;24605;50.092;9.182;2023-02-21T06:19:26;98242.06;;;6.22;100.00
38852;BME280;24605;50.092;9.182;2023-02-21T06:21:52;98203.47;;;5.96;100.00
38852;BME280;24605;50.092;9.182;2023-02-21T06:24:22;98242.31;;;6.19;100.00
38852;BME280;24605;50.092;9.182;2023-02-21T06:26:49;98247.72;;;6.47;100.00
38852;BME280;24605;50.092;9.182;2023-02-21T06:29:18;98250.72;;;6.42;100.00
38852;BME280;24605;50.092;9.182;2023-02-21T06:31:49;98258.78;;;6.29;100.00
38852;BME280;24605;50.092;9.182;2023-02-21T06:34:21;98256.22;;;6.39;100.00
38852;BME280;24605;50.092;9.182;2023-02-21T06:36:50;98250.75;;;6.52;100.00
38852;BME280;24605;50.092;9.182;2023-02-21T06:39:17;98254.31;;;6.61;100.00
38852;BME280;24605;50.092;9.182;2023-02-21T06:41:44;98251.56;;;6.62;100.00
38852;BME280;24605;50.092;9.182;2023-02-21T06:44:11;98254.56;;;6.57;100.00
38852;BME280;24605;50.092;9.182;2023-02-21T06:46:40;98254.88;;;6.54;100.00
38852;BME280;24605;50.092;9.182;2023-02-21T06:49:06;98257.88;;;6.50;100.00
38852;BME280;24605;50.092;9.182;2023-02-21T06:51:34;98265.41;;;6.53;100.00
38852;BME280;24605;50.092;9.182;2023-02-21T06:54:01;98265.13;;;6.56;100.00
38852;BME280;24605;50.092;9.182;2023-02-21T06:56:27;98247.56;;;6.48;100.00
38852;BME280;24605;50.092;9.182;2023-02-21T06:58:55;98273.66;;;6.58;100.00
38852;BME280;24605;50.092;9.182;2023-02-21T07:01:22;98268.59;;;6.66;100.00
38852;BME280;24605;50.092;9.182;2023-02-21T07:03:51;98266.25;;;6.83;100.00
38852;BME280;24605;50.092;9.182;2023-02-21T07:06:17;98268.84;;;6.83;100.00
38852;BME280;24605;50.092;9.182;2023-02-21T07:08:44;98273.25;;;6.92;100.00
38852;BME280;24605;50.092;9.182;2023-02-21T07:11:11;98283.41;;;6.95;100.00
38852;BME280;24605;50.092;9.182;2023-02-21T07:13:37;98274.91;;;6.93;100.00
38852;BME280;24605;50.092;9.182;2023-02-21T07:16:04;98284.63;;;7.11;100.00
38852;BME280;24605;50.092;9.182;2023-02-21T07:18:31;98282.00;;;7.01;100.00
38852;BME280;24605;50.092;9.182;2023-02-21T07:20:59;98273.38;;;7.00;100.00
38852;BME280;24605;50.092;9.182;2023-02-21T07:23:26;98282.44;;;7.16;100.00
38852;BME280;24605;50.092;9.182;2023-02-21T07:25:52;98280.13;;;7.13;100.00
38852;BME280;24605;50.092;9.182;2023-02-21T07:28:19;98234.56;;;6.87;100.00
38852;BME280;24605;50.092;9.182;2023-02-21T07:30:45;98281.31;;;7.28;100.00
38852;BME280;24605;50.092;9.182;2023-02-21T07:33:12;98271.00;;;7.36;100.00
38852;BME280;24605;50.092;9.182;2023-02-21T07:35:38;98279.94;;;7.24;100.00
38852;BME280;24605;50.092;9.182;2023-02-21T07:38:06;98268.78;;;7.42;100.00
38852;BME280;24605;50.092;9.182;2023-02-21T07:40:32;98282.94;;;7.39;100.00
38852;BME280;24605;50.092;9.182;2023-02-21T07:42:59;98283.38;;;7.34;100.00
38852;BME280;24605;50.092;9.182;2023-02-21T07:45:26;98281.97;;;7.40;100.00
38852;BME280;24605;50.092;9.182;2023-02-21T07:47:53;98275.13;;;7.39;100.00
38852;BME280;24605;50.092;9.182;2023-02-21T07:50:19;98286.94;;;7.33;100.00
38852;BME280;24605;50.092;9.182;2023-02-21T07:52:47;98290.09;;;7.27;100.00
38852;BME280;24605;50.092;9.182;2023-02-21T07:55:15;98281.44;;;7.36;100.00
38852;BME280;24605;50.092;9.182;2023-02-21T07:57:42;98277.03;;;7.47;100.00
38852;BME280;24605;50.092;9.182;2023-02-21T08:00:09;98272.44;;;7.68;100.00
38852;BME280;24605;50.092;9.182;2023-02-21T08:02:36;98281.06;;;7.79;100.00
38852;BME280;24605;50.092;9.182;2023-02-21T08:05:03;98284.34;;;7.81;100.00
38852;BME280;24605;50.092;9.182;2023-02-21T08:07:30;98281.69;;;7.91;100.00
38852;BME280;24605;50.092;9.182;2023-02-21T08:09:57;98281.16;;;7.97;100.00
38852;BME280;24605;50.092;9.182;2023-02-21T08:12:25;98266.97;;;7.99;100.00
38852;BME280;24605;50.092;9.182;2023-02-21T08:14:51;98288.53;;;8.29;100.00
38852;BME280;24605;50.092;9.182;2023-02-21T08:17:18;98277.41;;;8.55;100.00
38852;BME280;24605;50.092;9.182;2023-02-21T08:19:45;98270.88;;;8.41;100.00
38852;BME280;24605;50.092;9.182;2023-02-21T08:22:12;98272.84;;;8.57;100.00
38852;BME280;24605;50.092;9.182;2023-02-21T08:24:38;98268.75;;;8.55;100.00
38852;BME280;24605;50.092;9.182;2023-02-21T08:27:04;98271.00;;;8.68;100.00
38852;BME280;24605;50.092;9.182;2023-02-21T08:29:32;98276.47;;;8.28;100.00
38852;BME280;24605;50.092;9.182;2023-02-21T08:31:59;98283.03;;;8.60;100.00
38852;BME280;24605;50.092;9.182;2023-02-21T08:34:25;98276.31;;;8.94;100.00
38852;BME280;24605;50.092;9.182;2023-02-21T08:36:54;98277.56;;;9.26;99.17
38852;BME280;24605;50.092;9.182;2023-02-21T08:39:20;98268.41;;;8.86;99.40
38852;BME280;24605;50.092;9.182;2023-02-21T08:41:47;98271.91;;;8.76;100.00
38852;BME280;24605;50.092;9.182;2023-02-21T08:44:16;98276.31;;;8.94;100.00
38852;BME280;24605;50.092;9.182;2023-02-21T08:46:44;98272.50;;;8.88;100.00
38852;BME280;24605;50.092;9.182;2023-02-21T08:49:10;98275.38;;;9.21;100.00
38852;BME280;24605;50.092;9.182;2023-02-21T08:51:37;98277.00;;;9.40;97.32
38852;BME280;24605;50.092;9.182;2023-02-21T08:54:05;98277.88;;;9.49;97.34
38852;BME280;24605;50.092;9.182;2023-02-21T08:56:32;98284.31;;;9.55;95.36
38852;BME280;24605;50.092;9.182;2023-02-21T08:58:59;98281.31;;;9.23;95.53
38852;BME280;24605;50.092;9.182;2023-02-21T09:01:30;98286.44;;;9.33;96.31
38852;BME280;24605;50.092;9.182;2023-02-21T09:03:59;98292.63;;;9.32;96.30
38852;BME280;24605;50.092;9.182;2023-02-21T09:06:26;98288.97;;;9.43;96.21
38852;BME280;24605;50.092;9.182;2023-02-21T09:08:53;98291.13;;;9.74;93.82
38852;BME280;24605;50.092;9.182;2023-02-21T09:11:20;98292.72;;;9.67;92.85
38852;BME280;24605;50.092;9.182;2023-02-21T09:13:46;98292.53;;;9.95;92.99
38852;BME280;24605;50.092;9.182;2023-02-21T09:16:13;98285.44;;;9.87;92.25
38852;BME280;24605;50.092;9.182;2023-02-21T09:18:39;98291.47;;;9.79;92.54
38852;BME280;24605;50.092;9.182;2023-02-21T09:21:07;98290.22;;;9.92;92.38
38852;BME280;24605;50.092;9.182;2023-02-21T09:23:34;98288.56;;;9.91;92.76
38852;BME280;24605;50.092;9.182;2023-02-21T09:26:00;98292.25;;;10.06;91.64
38852;BME280;24605;50.092;9.182;2023-02-21T09:28:27;98283.66;;;10.30;89.82
38852;BME280;24605;50.092;9.182;2023-02-21T09:30:55;98285.78;;;10.27;88.98
38852;BME280;24605;50.092;9.182;2023-02-21T09:33:22;98292.81;;;10.69;87.58
38852;BME280;24605;50.092;9.182;2023-02-21T09:35:48;98292.50;;;10.80;85.39
38852;BME280;24605;50.092;9.182;2023-02-21T09:38:16;98285.28;;;10.66;86.36
38852;BME280;24605;50.092;9.182;2023-02-21T09:40:44;98292.19;;;10.75;86.31
38852;BME280;24605;50.092;9.182;2023-02-21T09:43:15;98281.66;;;10.67;86.45
38852;BME280;24605;50.092;9.182;2023-02-21T09:45:43;98287.44;;;10.71;86.18
38852;BME280;24605;50.092;9.182;2023-02-21T09:48:13;98285.06;;;10.43;86.20
38852;BME280;24605;50.092;9.182;2023-02-21T09:50:43;98295.53;;;10.08;89.55
38852;BME280;24605;50.092;9.182;2023-02-21T09:53:16;98286.06;;;10.50;86.35
38852;BME280;24605;50.092;9.182;2023-02-21T09:55:44;98282.28;;;10.44;86.61
38852;BME280;24605;50.092;9.182;2023-02-21T09:58:12;98282.47;;;10.59;86.66
38852;BME280;24605;50.092;9.182;2023-02-21T10:00:39;98287.28;;;10.97;84.70
38852;BME280;24605;50.092;9.182;2023-02-21T10:03:20;98284.97;;;10.77;85.09
38852;BME280;24605;50.092;9.182;2023-02-21T10:05:52;98286.47;;;10.88;84.40
38852;BME280;24605;50.092;9.182;2023-02-21T10:08:26;98285.91;;;10.60;86.60
38852;BME280;24605;50.092;9.182;2023-02-21T10:11:14;98283.50;;;10.83;83.96
38852;BME280;24605;50.092;9.182;2023-02-21T10:13:49;98291.34;;;10.75;86.12
38852;BME280;24605;50.092;9.182;2023-02-21T10:16:21;98281.72;;;10.92;84.31
38852;BME280;24605;50.092;9.182;2023-02-21T10:18:58;98287.63;;;11.19;83.34
38852;BME280;24605;50.092;9.182;2023-02-21T10:21:29;98294.03;;;11.33;82.61
38852;BME280;24605;50.092;9.182;2023-02-21T10:23:58;98287.94;;;11.24;81.27
38852;BME280;24605;50.092;9.182;2023-02-21T10:26:33;98301.31;;;10.63;84.97
38852;BME280;24605;50.092;9.182;2023-02-21T10:29:01;98295.81;;;10.91;83.91
38852;BME280;24605;50.092;9.182;2023-02-21T10:31:31;98295.75;;;10.58;85.23
38852;BME280;24605;50.092;9.182;2023-02-21T10:33:59;98294.16;;;10.81;85.91
38852;BME280;24605;50.092;9.182;2023-02-21T10:36:26;98292.03;;;11.18;83.78
38852;BME280;24605;50.092;9.182;2023-02-21T10:38:56;98300.09;;;11.33;83.30
38852;BME280;24605;50.092;9.182;2023-02-21T10:41:26;98303.66;;;11.49;82.27
38852;BME280;24605;50.092;9.182;2023-02-21T10:43:59;98300.88;;;11.34;82.64
38852;BME280;24605;50.092;9.182;2023-02-21T10:46:30;98292.00;;;11.51;82.06
38852;BME280;24605;50.092;9.182;2023-02-21T10:49:14;98295.13;;;11.63;82.32
38852;BME280;24605;50.092;9.182;2023-02-21T10:51:42;98295.94;;;11.72;82.18
38852;BME280;24605;50.092;9.182;2023-02-21T10:54:18;98293.75;;;12.00;80.43
38852;BME280;24605;50.092;9.182;2023-02-21T10:56:46;98294.72;;;12.07;79.47
38852;BME280;24605;50.092;9.182;2023-02-21T10:59:20;98289.13;;;12.02;79.84
38852;BME280;24605;50.092;9.182;2023-02-21T11:01:47;98292.06;;;12.16;79.35
38852;BME280;24605;50.092;9.182;2023-02-21T11:04:24;98288.38;;;12.33;79.16
38852;BME280;24605;50.092;9.182;2023-02-21T11:06:54;98247.66;;;12.52;77.60
38852;BME280;24605;50.092;9.182;2023-02-21T11:09:34;98283.13;;;12.65;76.05
38852;BME280;24605;50.092;9.182;2023-02-21T11:12:03;98269.78;;;12.90;75.79
38852;BME280;24605;50.092;9.182;2023-02-21T11:14:32;98279.53;;;13.04;74.30
38852;BME280;24605;50.092;9.182;2023-02-21T11:17:11;98267.41;;;12.48;77.18
38852;BME280;24605;50.092;9.182;2023-02-21T11:19:57;98279.25;;;12.99;74.80
38852;BME280;24605;50.092;9.182;2023-02-21T11:22:34;98263.34;;;13.15;74.85
38852;BME280;24605;50.092;9.182;2023-02-21T11:25:04;98273.50;;;13.42;73.19
38852;BME280;24605;50.092;9.182;2023-02-21T11:27:33;98270.78;;;13.50;72.23
38852;BME280;24605;50.092;9.182;2023-02-21T11:30:08;98260.50;;;13.17;75.23
38852;BME280;24605;50.092;9.182;2023-02-21T11:32:37;98255.47;;;12.92;75.85
38852;BME280;24605;50.092;9.182;2023-02-21T11:35:20;98261.88;;;13.51;72.73
38852;BME280;24605;50.092;9.182;2023-02-21T11:37:49;98234.56;;;13.67;72.04
38852;BME280;24605;50.092;9.182;2023-02-21T11:40:22;98251.31;;;14.11;71.54
38852;BME280;24605;50.092;9.182;2023-02-21T11:42:48;98244.91;;;13.99;71.80
38852;BME280;24605;50.092;9.182;2023-02-21T11:45:20;98236.00;;;13.70;71.64
38852;BME280;24605;50.092;9.182;2023-02-21T11:47:53;98242.47;;;13.82;71.07
38852;BME280;24605;50.092;9.182;2023-02-21T11:50:24;98240.53;;;13.91;72.08
38852;BME280;24605;50.092;9.182;2023-02-21T11:52:55;98236.38;;;13.52;73.31
38852;BME280;24605;50.092;9.182;2023-02-21T11:55:26;98232.00;;;13.59;73.43
38852;BME280;24605;50.092;9.182;2023-02-21T11:58:16;98235.44;;;13.44;74.13
38852;BME280;24605;50.092;9.182;2023-02-21T12:00:51;98216.19;;;13.44;74.30
38852;BME280;24605;50.092;9.182;2023-02-21T12:04:00;98226.66;;;13.82;73.29
38852;BME280;24605;50.092;9.182;2023-02-21T12:06:35;98228.09;;;13.70;72.76
38852;BME280;24605;50.092;9.182;2023-02-21T12:09:09;98231.28;;;13.80;72.72
38852;BME280;24605;50.092;9.182;2023-02-21T12:11:45;98218.84;;;13.74;72.88
38852;BME280;24605;50.092;9.182;2023-02-21T12:14:39;98209.94;;;13.75;73.06
38852;BME280;24605;50.092;9.182;2023-02-21T12:17:16;98218.09;;;13.95;72.62
38852;BME280;24605;50.092;9.182;2023-02-21T12:20:06;98210.94;;;14.25;71.25
38852;BME280;24605;50.092;9.182;2023-02-21T12:22:57;98201.69;;;14.51;69.64
38852;BME280;24605;50.092;9.182;2023-02-21T12:25:29;98200.41;;;14.25;71.99
38852;BME280;24605;50.092;9.182;2023-02-21T12:28:03;98149.16;;;14.35;70.08
38852;BME280;24605;50.092;9.182;2023-02-21T12:30:58;98188.13;;;14.76;69.60
38852;BME280;24605;50.092;9.182;2023-02-21T12:33:42;98187.63;;;15.16;68.10
38852;BME280;24605;50.092;9.182;2023-02-21T12:36:16;98183.72;;;15.12;67.67
38852;BME280;24605;50.092;9.182;2023-02-21T12:38:52;98171.28;;;14.77;68.37
38852;BME280;24605;50.092;9.182;2023-02-21T12:41:30;98171.78;;;14.44;70.39
38852;BME280;24605;50.092;9.182;2023-02-21T12:44:10;98172.06;;;13.46;73.62
38852;BME280;24605;50.092;9.182;2023-02-21T12:46:39;98168.44;;;13.47;75.07
38852;BME280;24605;50.092;9.182;2023-02-21T12:49:13;98155.63;;;13.44;75.92
38852;BME280;24605;50.092;9.182;2023-02-21T12:51:46;98160.94;;;13.36;78.24
38852;BME280;24605;50.092;9.182;2023-02-21T12:54:19;98152.09;;;12.98;80.46
38852;BME280;24605;50.092;9.182;2023-02-21T12:56:50;98144.84;;;13.00;81.96
38852;BME280;24605;50.092;9.182;2023-02-21T12:59:25;98141.50;;;13.07;81.06
38852;BME280;24605;50.092;9.182;2023-02-21T13:01:58;98140.50;;;13.08;81.48
38852;BME280;24605;50.092;9.182;2023-02-21T13:04:36;98139.22;;;12.89;83.14
38852;BME280;24605;50.092;9.182;2023-02-21T13:07:11;98137.31;;;12.97;83.79
38852;BME280;24605;50.092;9.182;2023-02-21T13:09:48;98117.31;;;12.73;82.24
38852;BME280;24605;50.092;9.182;2023-02-21T13:12:19;98125.31;;;12.80;82.11
38852;BME280;24605;50.092;9.182;2023-02-21T13:14:49;98114.78;;;12.80;84.05
38852;BME280;24605;50.092;9.182;2023-02-21T13:17:17;98111.69;;;12.76;84.25
38852;BME280;24605;50.092;9.182;2023-02-21T13:19:49;98111.75;;;13.06;84.01
38852;BME280;24605;50.092;9.182;2023-02-21T13:25:51;98103.75;;;13.14;84.52
38852;BME280;24605;50.092;9.182;2023-02-21T13:28:23;98100.66;;;13.11;84.83
38852;BME280;24605;50.092;9.182;2023-02-21T13:30:57;98095.31;;;13.04;85.01
38852;BME280;24605;50.092;9.182;2023-02-21T13:33:27;98080.31;;;13.20;84.91
38852;BME280;24605;50.092;9.182;2023-02-21T13:35:57;98079.16;;;13.22;84.41
38852;BME280;24605;50.092;9.182;2023-02-21T13:38:26;98069.34;;;13.16;84.20
38852;BME280;24605;50.092;9.182;2023-02-21T13:41:03;98068.63;;;13.22;83.43